createdAt,value
2022-11-20T00:00:50.611Z,53.40
2022-11-20T00:03:18.225Z,54.10
2022-11-20T00:05:45.486Z,52.80
2022-11-20T00:08:12.637Z,53.30
2022-11-20T00:10:40.475Z,52.60
2022-11-20T00:13:08.269Z,52.80
2022-11-20T00:15:35.186Z,52.30
2022-11-20T00:18:02.103Z,54.30
2022-11-20T00:20:28.900Z,53.50
2022-11-20T00:22:55.611Z,54.30
2022-11-20T00:25:22.333Z,52.60
2022-11-20T00:27:49.078Z,53.30
2022-11-20T00:30:15.886Z,53.70
2022-11-20T00:32:42.725Z,53.10
2022-11-20T00:35:09.619Z,53.10
2022-11-20T00:37:36.346Z,54.30
2022-11-20T00:40:03.242Z,51.90
2022-11-20T00:42:29.950Z,53.40
2022-11-20T00:44:56.665Z,53.70
2022-11-20T00:47:23.438Z,52.80
2022-11-20T00:49:50.144Z,53.40
2022-11-20T00:52:16.957Z,54.10
2022-11-20T00:54:43.691Z,54.50
2022-11-20T00:57:10.414Z,53.50
2022-11-20T00:59:37.273Z,53.30
2022-11-20T01:02:04.070Z,53.10
2022-11-20T01:04:31.013Z,53.60
2022-11-20T01:06:57.825Z,52.90
2022-11-20T01:09:24.703Z,54.20
2022-11-20T01:11:51.500Z,53.20
2022-11-20T01:14:20.581Z,53.70
2022-11-20T01:16:50.176Z,52.10
2022-11-20T01:19:23.522Z,52.30
2022-11-20T01:21:53.731Z,53.00
2022-11-20T01:24:22.128Z,52.70
2022-11-20T01:26:50.943Z,53.10
2022-11-20T01:29:22.311Z,52.70
2022-11-20T01:31:49.350Z,52.20
2022-11-20T01:34:19.090Z,52.90
2022-11-20T01:36:46.336Z,53.40
2022-11-20T01:39:16.846Z,51.00
2022-11-20T01:42:08.411Z,51.90
2022-11-20T01:44:59.646Z,51.90
2022-11-20T01:47:32.370Z,51.70
2022-11-20T01:50:05.972Z,54.30
2022-11-20T01:52:55.591Z,51.80
2022-11-20T01:55:29.381Z,51.80
2022-11-20T01:57:56.963Z,51.80
2022-11-20T02:00:24.024Z,53.00
2022-11-20T02:03:04.709Z,53.60
2022-11-20T02:06:00.192Z,52.70
2022-11-20T02:08:27.139Z,51.80
2022-11-20T02:10:53.902Z,54.00
2022-11-20T02:13:39.598Z,54.40
2022-11-20T02:16:09.617Z,53.00
2022-11-20T02:18:37.049Z,52.40
2022-11-20T02:21:15.832Z,52.70
2022-11-20T02:23:57.687Z,52.20
2022-11-20T02:26:27.263Z,53.40
2022-11-20T02:28:55.030Z,53.40
2022-11-20T02:31:21.823Z,52.70
2022-11-20T02:33:48.617Z,53.60
2022-11-20T02:36:16.934Z,52.90
2022-11-20T02:38:44.599Z,52.70
2022-11-20T02:41:11.398Z,53.40
2022-11-20T02:43:38.131Z,53.50
2022-11-20T02:46:08.130Z,53.20
2022-11-20T02:48:34.959Z,52.30
2022-11-20T02:51:01.830Z,54.50
2022-11-20T02:53:28.767Z,55.00
2022-11-20T02:55:55.563Z,53.40
2022-11-20T02:58:22.494Z,53.20
2022-11-20T03:00:51.043Z,53.20
2022-11-20T03:03:17.902Z,52.80
2022-11-20T03:05:44.677Z,52.80
2022-11-20T03:08:11.462Z,52.50
2022-11-20T03:10:38.126Z,52.10
2022-11-20T03:13:04.943Z,53.90
2022-11-20T03:15:31.800Z,54.40
2022-11-20T03:17:58.865Z,53.90
2022-11-20T03:20:25.598Z,53.60
2022-11-20T03:22:55.281Z,53.40
2022-11-20T03:25:23.231Z,51.90
2022-11-20T03:27:50.000Z,52.30
2022-11-20T03:30:16.828Z,51.20
2022-11-20T03:32:43.710Z,54.10
2022-11-20T03:35:10.829Z,53.10
2022-11-20T03:37:37.582Z,53.50
2022-11-20T03:40:04.953Z,54.50
2022-11-20T03:42:46.702Z,52.20
2022-11-20T03:45:22.471Z,53.00
2022-11-20T03:47:49.287Z,51.10
2022-11-20T03:50:16.148Z,52.90
2022-11-20T03:52:43.302Z,53.40
2022-11-20T03:55:10.345Z,53.20
2022-11-20T03:57:37.117Z,50.90
2022-11-20T04:00:06.205Z,51.80
2022-11-20T04:02:33.048Z,52.20
2022-11-20T04:05:00.049Z,53.60
2022-11-20T04:07:26.892Z,51.10
2022-11-20T04:09:53.659Z,53.20
2022-11-20T04:12:20.463Z,53.60
2022-11-20T04:14:47.250Z,49.50
2022-11-20T04:17:13.954Z,52.40
2022-11-20T04:19:40.798Z,52.40
2022-11-20T04:22:07.746Z,53.60
2022-11-20T04:24:34.497Z,52.10
2022-11-20T04:27:01.321Z,53.10
2022-11-20T04:29:28.067Z,53.90
2022-11-20T04:31:54.828Z,53.90
2022-11-20T04:34:21.671Z,52.40
2022-11-20T04:36:48.514Z,53.30
2022-11-20T04:39:16.366Z,54.70
2022-11-20T04:41:43.424Z,53.50
2022-11-20T04:44:10.575Z,52.60
2022-11-20T04:46:40.775Z,53.00
2022-11-20T04:49:09.088Z,51.40
2022-11-20T04:51:36.192Z,53.00
2022-11-20T04:54:03.042Z,53.60
2022-11-20T04:56:30.045Z,53.90
2022-11-20T04:58:56.823Z,53.60
2022-11-20T05:01:25.254Z,54.10
2022-11-20T05:03:52.552Z,52.10
2022-11-20T05:06:22.914Z,54.60
2022-11-20T05:08:49.878Z,52.30
2022-11-20T05:11:20.129Z,53.90
2022-11-20T05:13:47.492Z,53.60
2022-11-20T05:16:20.909Z,54.80
2022-11-20T05:18:48.215Z,53.30
2022-11-20T05:21:15.802Z,54.40
2022-11-20T05:23:43.474Z,53.30
2022-11-20T05:26:18.667Z,53.40
2022-11-20T05:28:45.654Z,52.30
2022-11-20T05:31:15.537Z,53.70
2022-11-20T05:33:43.642Z,53.40
2022-11-20T05:36:11.942Z,52.30
2022-11-20T05:38:39.092Z,52.50
2022-11-20T05:41:20.047Z,52.80
2022-11-20T05:43:48.396Z,52.40
2022-11-20T05:46:17.551Z,53.10
2022-11-20T05:48:45.906Z,53.80
2022-11-20T05:51:15.743Z,53.60
2022-11-20T05:53:48.072Z,53.30
2022-11-20T05:56:18.280Z,53.40
2022-11-20T05:58:46.352Z,52.80
2022-11-20T06:01:19.258Z,53.90
2022-11-20T06:03:48.276Z,52.40
2022-11-20T06:06:16.268Z,53.50
2022-11-20T06:08:43.357Z,54.40
2022-11-20T06:11:11.908Z,54.80
2022-11-20T06:13:42.280Z,53.70
2022-11-20T06:16:10.198Z,52.40
2022-11-20T06:18:37.082Z,53.20
2022-11-20T06:21:15.871Z,54.60
2022-11-20T06:23:43.317Z,52.30
2022-11-20T06:26:13.210Z,52.70
2022-11-20T06:28:40.590Z,53.20
2022-11-20T06:31:08.570Z,53.90
2022-11-20T06:33:35.442Z,53.80
2022-11-20T06:36:07.254Z,54.20
2022-11-20T06:38:35.791Z,54.00
2022-11-20T06:41:03.784Z,52.70
2022-11-20T06:43:30.742Z,52.50
2022-11-20T06:45:59.394Z,53.90
2022-11-20T06:48:28.305Z,51.80
2022-11-20T06:50:55.227Z,52.70
2022-11-20T06:53:23.132Z,54.60
2022-11-20T06:55:52.258Z,52.80
2022-11-20T06:58:19.478Z,53.50
2022-11-20T07:00:46.413Z,55.40
2022-11-20T07:03:13.505Z,55.50
2022-11-20T07:05:41.329Z,54.50
2022-11-20T07:08:08.895Z,53.40
2022-11-20T07:10:36.174Z,52.60
2022-11-20T07:13:03.183Z,53.70
2022-11-20T07:15:30.497Z,54.30
2022-11-20T07:18:00.370Z,53.70
2022-11-20T07:20:27.259Z,53.20
2022-11-20T07:22:57.902Z,54.20
2022-11-20T07:25:29.046Z,53.70
2022-11-20T07:27:59.794Z,53.50
2022-11-20T07:30:29.722Z,55.80
2022-11-20T07:32:57.605Z,52.60
2022-11-20T07:35:25.540Z,53.30
2022-11-20T07:37:52.273Z,52.90
2022-11-20T07:40:19.554Z,54.10
2022-11-20T07:42:53.815Z,54.60
2022-11-20T07:45:22.252Z,53.00
2022-11-20T07:47:49.450Z,53.50
2022-11-20T07:50:16.959Z,53.50
2022-11-20T07:52:44.039Z,52.80
2022-11-20T07:55:11.558Z,54.60
2022-11-20T07:57:38.658Z,54.80
2022-11-20T08:00:08.148Z,54.90
2022-11-20T08:02:40.327Z,54.00
2022-11-20T08:05:08.186Z,53.60
2022-11-20T08:07:39.563Z,54.20
2022-11-20T08:10:07.823Z,54.40
2022-11-20T08:13:10.106Z,53.90
2022-11-20T08:15:38.339Z,54.50
2022-11-20T08:21:03.602Z,54.80
2022-11-20T08:23:30.675Z,54.50
2022-11-20T08:25:57.517Z,56.60
2022-11-20T08:28:24.494Z,56.20
2022-11-20T08:30:51.605Z,56.80
2022-11-20T08:33:19.113Z,58.40
2022-11-20T08:35:46.232Z,57.80
2022-11-20T08:38:13.142Z,57.00
2022-11-20T08:40:40.624Z,55.10
2022-11-20T08:43:07.897Z,55.40
2022-11-20T08:45:35.531Z,55.10
2022-11-20T08:48:03.822Z,57.30
2022-11-20T08:50:32.860Z,56.10
2022-11-20T08:53:04.870Z,55.60
2022-11-20T08:55:31.636Z,55.90
2022-11-20T08:57:58.450Z,57.70
2022-11-20T09:00:25.218Z,56.90
2022-11-20T09:02:53.123Z,56.70
2022-11-20T09:05:19.938Z,55.50
2022-11-20T09:07:46.638Z,57.60
2022-11-20T09:10:28.790Z,56.00
2022-11-20T09:12:56.704Z,54.60
2022-11-20T09:15:24.752Z,55.20
2022-11-20T09:17:56.071Z,55.30
2022-11-20T09:20:23.221Z,56.70
2022-11-20T09:22:50.030Z,57.20
2022-11-20T09:25:17.302Z,54.40
2022-11-20T09:27:46.539Z,56.30
2022-11-20T09:30:17.095Z,56.50
2022-11-20T09:32:44.322Z,54.90
2022-11-20T09:35:12.048Z,56.90
2022-11-20T09:37:39.280Z,57.30
2022-11-20T09:40:06.838Z,56.80
2022-11-20T09:42:55.274Z,54.80
2022-11-20T09:45:46.337Z,54.80
2022-11-20T09:48:16.149Z,54.70
2022-11-20T09:51:09.645Z,55.60
2022-11-20T09:53:57.535Z,54.80
2022-11-20T09:56:24.972Z,54.90
2022-11-20T09:58:55.120Z,55.20
2022-11-20T10:01:30.370Z,55.60
2022-11-20T10:04:12.542Z,57.20
2022-11-20T10:07:30.700Z,55.20
2022-11-20T10:09:56.340Z,56.20
2022-11-20T10:12:58.129Z,55.50
2022-11-20T10:15:39.973Z,55.30
2022-11-20T10:18:24.387Z,55.50
2022-11-20T10:21:05.231Z,56.30
2022-11-20T10:23:48.988Z,57.20
2022-11-20T10:26:53.071Z,56.10
2022-11-20T10:29:28.654Z,55.60
2022-11-20T10:32:03.290Z,55.80
2022-11-20T10:34:36.087Z,56.20
2022-11-20T10:37:15.635Z,56.70
2022-11-20T10:39:57.639Z,55.80
2022-11-20T10:42:35.517Z,56.30
2022-11-20T10:45:32.369Z,56.50
2022-11-20T10:48:22.367Z,55.90
2022-11-20T10:51:14.495Z,56.10
2022-11-20T10:54:13.350Z,55.90
2022-11-20T10:56:50.100Z,55.90
2022-11-20T10:59:36.647Z,57.00
2022-11-20T11:02:17.762Z,56.00
2022-11-20T11:04:48.300Z,56.00
2022-11-20T11:07:38.585Z,56.30
2022-11-20T11:10:24.231Z,56.20
2022-11-20T11:12:51.041Z,56.20
2022-11-20T11:15:28.814Z,56.50
2022-11-20T11:17:55.876Z,57.70
2022-11-20T11:20:25.823Z,57.70
2022-11-20T11:22:55.985Z,56.80
2022-11-20T11:25:36.204Z,56.70
2022-11-20T11:28:18.137Z,56.40
2022-11-20T11:30:45.642Z,57.50
2022-11-20T11:33:19.960Z,59.30
2022-11-20T11:35:51.545Z,58.00
2022-11-20T11:38:24.817Z,56.90
2022-11-20T11:40:55.571Z,57.50
2022-11-20T11:43:44.984Z,56.80
2022-11-20T11:46:33.925Z,57.70
2022-11-20T11:49:02.122Z,56.60
2022-11-20T11:52:06.206Z,56.90
2022-11-20T11:54:54.051Z,56.60
2022-11-20T11:57:23.903Z,56.70
2022-11-20T12:00:09.697Z,58.40
2022-11-20T12:02:45.886Z,56.60
2022-11-20T12:05:26.812Z,57.30
2022-11-20T12:08:05.078Z,56.70
2022-11-20T12:10:56.821Z,56.90
2022-11-20T12:13:41.681Z,57.00
2022-11-20T12:16:14.109Z,57.00
2022-11-20T12:18:41.898Z,57.60
2022-11-20T12:21:29.067Z,57.10
2022-11-20T12:24:20.434Z,57.00
2022-11-20T12:27:02.287Z,57.00
2022-11-20T12:29:43.799Z,58.20
2022-11-20T12:32:16.675Z,57.10
2022-11-20T12:34:56.031Z,58.60
2022-11-20T12:37:49.283Z,57.00
2022-11-20T12:40:32.998Z,58.10
2022-11-20T12:43:29.979Z,59.50
2022-11-20T12:46:07.021Z,57.80
2022-11-20T12:48:46.580Z,57.70
2022-11-20T12:51:28.727Z,57.30
2022-11-20T12:54:41.125Z,57.40
2022-11-20T12:57:24.185Z,57.40
2022-11-20T13:00:14.738Z,57.40
2022-11-20T13:02:56.175Z,58.20
2022-11-20T13:05:25.787Z,57.60
2022-11-20T13:07:54.898Z,58.80
2022-11-20T13:10:40.562Z,58.30
2022-11-20T13:13:30.138Z,57.40
2022-11-20T13:16:00.290Z,57.50
2022-11-20T13:18:28.270Z,57.70
2022-11-20T13:20:55.138Z,58.60
2022-11-20T13:23:26.775Z,59.30
2022-11-20T13:26:15.774Z,58.00
2022-11-20T13:28:42.867Z,57.40
2022-11-20T13:31:31.386Z,57.70
2022-11-20T13:34:00.400Z,57.30
2022-11-20T13:36:29.134Z,58.30
2022-11-20T13:38:57.307Z,58.10
2022-11-20T13:41:36.291Z,58.60
2022-11-20T13:44:14.478Z,57.40
2022-11-20T13:46:44.853Z,57.70
2022-11-20T13:49:27.163Z,57.40
2022-11-20T13:52:21.519Z,57.40
2022-11-20T13:55:35.571Z,57.80
2022-11-20T13:58:02.223Z,57.30
2022-11-20T14:00:29.100Z,57.80
2022-11-20T14:03:18.242Z,60.10
2022-11-20T14:06:00.889Z,57.20
2022-11-20T14:08:40.859Z,58.40
2022-11-20T14:11:27.123Z,57.20
2022-11-20T14:14:17.024Z,57.20
2022-11-20T14:16:46.698Z,58.20
2022-11-20T14:19:25.973Z,58.10
2022-11-20T14:22:17.182Z,56.50
2022-11-20T14:24:44.071Z,57.00
2022-11-20T14:27:22.379Z,58.90
2022-11-20T14:29:51.537Z,57.50
2022-11-20T14:32:20.230Z,58.30
2022-11-20T14:34:50.406Z,57.10
2022-11-20T14:37:28.081Z,57.30
2022-11-20T14:39:56.414Z,58.10
2022-11-20T14:42:25.720Z,56.30
2022-11-20T14:44:56.225Z,57.70
2022-11-20T14:47:27.127Z,56.70
2022-11-20T14:49:55.766Z,57.10
2022-11-20T14:52:24.784Z,57.00
2022-11-20T14:54:56.772Z,56.90
2022-11-20T14:57:34.047Z,56.40
2022-11-20T15:00:21.327Z,56.90
2022-11-20T15:02:52.615Z,56.70
2022-11-20T15:05:26.262Z,57.20
2022-11-20T15:08:09.754Z,56.60
2022-11-20T15:10:36.630Z,56.40
2022-11-20T15:13:15.314Z,58.80
2022-11-20T15:15:50.594Z,57.80
2022-11-20T15:18:23.596Z,56.80
2022-11-20T15:20:50.893Z,56.40
2022-11-20T15:23:19.548Z,57.50
2022-11-20T15:25:48.161Z,57.00
2022-11-20T15:28:25.985Z,56.30
2022-11-20T15:30:53.374Z,57.00
2022-11-20T15:33:20.281Z,58.00
2022-11-20T15:35:47.166Z,57.20
2022-11-20T15:38:14.144Z,56.70
2022-11-20T15:40:41.104Z,57.60
2022-11-20T15:43:13.341Z,55.30
2022-11-20T15:45:45.841Z,57.50
2022-11-20T15:48:16.846Z,55.90
2022-11-20T15:51:12.882Z,56.50
2022-11-20T15:53:41.785Z,55.80
2022-11-20T15:56:15.622Z,55.90
2022-11-20T15:58:42.802Z,58.50
2022-11-20T16:01:13.909Z,56.90
2022-11-20T16:03:40.806Z,56.70
2022-11-20T16:06:07.949Z,57.20
2022-11-20T16:08:34.804Z,57.40
2022-11-20T16:11:01.925Z,56.90
2022-11-20T16:13:47.662Z,58.40
2022-11-20T16:16:22.098Z,56.70
2022-11-20T16:18:49.525Z,56.10
2022-11-20T16:21:16.779Z,56.50
2022-11-20T16:23:43.674Z,56.50
2022-11-20T16:26:15.247Z,56.80
2022-11-20T16:28:42.258Z,56.00
2022-11-20T16:31:19.964Z,58.40
2022-11-20T16:33:51.775Z,56.40
2022-11-20T16:36:19.805Z,55.50
2022-11-20T16:38:46.758Z,56.70
2022-11-20T16:41:16.423Z,57.20
2022-11-20T16:43:48.276Z,55.60
2022-11-20T16:46:15.986Z,56.20
2022-11-20T16:48:42.853Z,55.30
2022-11-20T16:51:11.767Z,57.20
2022-11-20T16:53:39.720Z,55.20
2022-11-20T16:56:17.065Z,56.80
2022-11-20T16:58:44.821Z,55.20
2022-11-20T17:01:15.359Z,55.50
2022-11-20T17:03:43.591Z,56.70
2022-11-20T17:06:14.196Z,55.60
2022-11-20T17:08:41.262Z,55.60
2022-11-20T17:11:10.438Z,55.50
2022-11-20T17:13:39.976Z,56.10
2022-11-20T17:16:10.241Z,55.60
2022-11-20T17:18:37.034Z,55.40
2022-11-20T17:21:05.412Z,56.90
2022-11-20T17:23:35.228Z,56.00
2022-11-20T17:26:03.746Z,56.30
2022-11-20T17:28:31.893Z,56.40
2022-11-20T17:31:03.418Z,57.30
2022-11-20T17:33:30.171Z,55.40
2022-11-20T17:35:57.128Z,56.00
2022-11-20T17:38:24.302Z,54.40
2022-11-20T17:40:51.019Z,55.30
2022-11-20T17:43:17.846Z,57.10
2022-11-20T17:45:45.044Z,54.10
2022-11-20T17:48:12.670Z,55.90
2022-11-20T17:50:39.484Z,55.00
2022-11-20T17:53:07.457Z,54.10
2022-11-20T17:55:55.837Z,55.70
2022-11-20T17:58:22.894Z,55.90
2022-11-20T18:00:49.692Z,56.90
2022-11-20T18:03:16.559Z,54.50
2022-11-20T18:05:43.279Z,53.80
2022-11-20T18:08:10.140Z,56.30
2022-11-20T18:10:36.930Z,55.90
2022-11-20T18:13:03.784Z,56.50
2022-11-20T18:15:30.542Z,56.10
2022-11-20T18:17:57.354Z,55.60
2022-11-20T18:20:30.346Z,55.60
2022-11-20T18:22:59.951Z,55.10
2022-11-20T18:25:26.697Z,55.10
2022-11-20T18:27:53.531Z,56.20
2022-11-20T18:30:20.337Z,55.70
2022-11-20T18:32:47.178Z,55.60
2022-11-20T18:35:14.021Z,54.30
2022-11-20T18:37:40.812Z,53.30
2022-11-20T18:40:08.387Z,56.20
2022-11-20T18:42:55.318Z,54.40
2022-11-20T18:45:22.199Z,54.40
2022-11-20T18:47:48.962Z,55.50
2022-11-20T18:50:15.712Z,55.40
2022-11-20T18:52:44.540Z,54.60
2022-11-20T18:55:12.574Z,54.70
2022-11-20T18:57:39.419Z,53.00
2022-11-20T19:00:10.008Z,55.70
2022-11-20T19:02:41.565Z,53.80
2022-11-20T19:05:11.091Z,53.80
2022-11-20T19:07:38.044Z,54.60
2022-11-20T19:10:06.089Z,54.40
2022-11-20T19:12:32.910Z,54.80
2022-11-20T19:14:59.680Z,55.50
2022-11-20T19:17:26.473Z,55.10
2022-11-20T19:19:54.800Z,53.60
2022-11-20T19:22:22.093Z,54.00
2022-11-20T19:24:49.363Z,52.90
2022-11-20T19:27:16.158Z,54.50
2022-11-20T19:29:43.018Z,54.10
2022-11-20T19:32:09.842Z,55.50
2022-11-20T19:34:37.028Z,54.40
2022-11-20T19:37:05.177Z,54.10
2022-11-20T19:39:31.980Z,55.20
2022-11-20T19:41:58.731Z,54.20
2022-11-20T19:44:25.524Z,55.00
2022-11-20T19:46:52.368Z,53.90
2022-11-20T19:49:19.166Z,53.90
2022-11-20T19:51:48.207Z,54.50
2022-11-20T19:54:15.559Z,52.90
2022-11-20T19:56:42.403Z,54.20
2022-11-20T19:59:09.273Z,54.50
2022-11-20T20:01:36.148Z,52.20
2022-11-20T20:04:05.223Z,55.40
2022-11-20T20:06:33.770Z,54.60
2022-11-20T20:09:06.529Z,52.70
2022-11-20T20:11:34.823Z,53.20
2022-11-20T20:14:07.511Z,53.60
2022-11-20T20:16:35.221Z,53.80
2022-11-20T20:19:03.873Z,54.80
2022-11-20T20:21:34.965Z,54.30
2022-11-20T20:24:01.972Z,53.70
2022-11-20T20:26:31.089Z,54.60
2022-11-20T20:28:58.170Z,54.60
2022-11-20T20:31:27.606Z,54.20
2022-11-20T20:33:55.227Z,53.50
2022-11-20T20:36:23.564Z,53.40
2022-11-20T20:38:55.139Z,53.70
2022-11-20T20:41:24.631Z,54.30
2022-11-20T20:44:11.094Z,52.30
2022-11-20T20:46:38.082Z,53.80
2022-11-20T20:49:04.898Z,54.00
2022-11-20T20:51:31.938Z,54.00
2022-11-20T20:53:59.416Z,54.60
2022-11-20T20:56:26.259Z,55.10
2022-11-20T20:58:53.044Z,55.80
2022-11-20T21:01:20.735Z,55.30
2022-11-20T21:03:47.523Z,54.70
2022-11-20T21:06:14.676Z,54.60
2022-11-20T21:08:44.297Z,52.90
2022-11-20T21:11:14.123Z,55.90
2022-11-20T21:13:42.941Z,53.00
2022-11-20T21:16:10.522Z,53.50
2022-11-20T21:18:37.685Z,54.40
2022-11-20T21:21:24.474Z,53.30
2022-11-20T21:23:53.266Z,54.10
2022-11-20T21:26:20.832Z,53.80
2022-11-20T21:28:47.606Z,54.20
2022-11-20T21:31:18.257Z,53.70
2022-11-20T21:33:46.736Z,54.50
2022-11-20T21:36:19.978Z,54.70
2022-11-20T21:38:47.202Z,53.30
2022-11-20T21:41:15.442Z,53.50
2022-11-20T21:43:42.909Z,53.10
2022-11-20T21:46:12.570Z,53.70
2022-11-20T21:48:41.017Z,54.00
2022-11-20T21:51:19.874Z,54.20
2022-11-20T21:53:48.193Z,53.70
2022-11-20T21:56:20.234Z,54.70
2022-11-20T21:58:48.556Z,53.60
2022-11-20T22:01:20.203Z,53.30
2022-11-20T22:03:52.745Z,53.50
2022-11-20T22:06:20.719Z,53.40
2022-11-20T22:08:48.684Z,54.10
2022-11-20T22:11:18.450Z,54.60
2022-11-20T22:14:14.751Z,55.00
2022-11-20T22:16:41.633Z,53.60
2022-11-20T22:19:08.494Z,53.80
2022-11-20T22:21:35.701Z,55.10
2022-11-20T22:24:02.705Z,53.90
2022-11-20T22:26:33.961Z,55.10
2022-11-20T22:29:04.352Z,53.90
2022-11-20T22:31:31.864Z,54.90
2022-11-20T22:34:01.236Z,53.80
2022-11-20T22:36:29.510Z,55.10
2022-11-20T22:38:57.116Z,54.40
2022-11-20T22:41:28.499Z,54.50
2022-11-20T22:44:00.378Z,54.20
2022-11-20T22:46:29.469Z,53.40
2022-11-20T22:48:58.460Z,54.50
2022-11-20T22:51:33.108Z,53.50
2022-11-20T22:54:00.758Z,53.80
2022-11-20T22:56:28.813Z,55.80
2022-11-20T22:58:56.114Z,52.70
2022-11-20T23:01:28.130Z,53.90
2022-11-20T23:04:02.780Z,53.30
2022-11-20T23:06:30.458Z,53.30
2022-11-20T23:08:57.393Z,53.80
2022-11-20T23:11:27.058Z,54.90
2022-11-20T23:13:59.201Z,53.60
2022-11-20T23:16:27.731Z,53.30
2022-11-20T23:19:01.566Z,53.50
2022-11-20T23:21:28.706Z,53.30
2022-11-20T23:23:57.233Z,56.20
2022-11-20T23:26:27.440Z,53.80
2022-11-20T23:28:56.344Z,54.50
2022-11-20T23:31:23.673Z,54.30
2022-11-20T23:33:50.961Z,54.40
2022-11-20T23:36:18.153Z,53.60
2022-11-20T23:38:44.895Z,55.90
2022-11-20T23:41:12.690Z,54.00
2022-11-20T23:43:39.663Z,53.20
2022-11-20T23:46:06.886Z,53.60
2022-11-20T23:48:35.914Z,54.60
2022-11-20T23:51:03.932Z,54.00
2022-11-20T23:53:31.045Z,53.70
2022-11-20T23:56:00.248Z,54.50
2022-11-20T23:58:32.050Z,54.20
